KDBQ

Dubuque Regional Airport

Airport
ICAO code
KDBQ
IATA Code
BDQ
Summary
ICAO Region
NAM
ICAO Territory
Location

Dubuque, Iowa

Serving
Dubuque
Elevation
1077 ft
Coordinates
42° 24' 23" N , 90° 42' 18" W
KCC
Airport CFIT
Altimeter Temperature Error Correction
Metar
KDBQ 181653Z 17006KT 4SM -RA BR FEW009 BKN026 OVC046 08/07 A3009 RMK AO2 SLP195 P0003 T00830072

Description

Dubuque Regional Airport is a public airport located 8 nmm south of Dubuque, Iowa .

Airport map

Aerial View

SKYbrary Partners:

Safety knowledge contributed by: